Back to Top

Language: 

My Weather Underground Personal Weather Station Historical Data with Graphs...

Delerius Weather Station Historical Data
Daily Summary for January 21, 2018 Units:  English    Metric   Both
« Previous Day
Next Day »
Daily Weekly Monthly Yearly Custom
  High: Low: Average:
Temperature: 44.6 °F 30.0 °F 34 °F
Dew Point: 42.8 °F 28.5 °F 32.9 °F
Humidity: 98 % 91 % 96 %
Wind Speed: 15.0 mph 0.0 mph 4.1 mph
Wind Gust: 24.0 mph - -
Wind:- - South
Pressure: 29.92 in 29.59 in -
Precipitation: 0.19 in    
Historical Graphs
 
 
Tabular Data for January 21, 2018
Time Temperature Dew Point Pressure Wind Wind Speed Wind Gust Humidity Rainfall Rate (Hourly) solar Conditions
00:01 30.6 °F 28.8 °F 29.86 in Calm     93 % 0.00 in 0 W/m2
00:06 30.4 °F 28.6 °F 29.86 in Calm     93 % 0.00 in 0 W/m2
00:11 30.4 °F 28.6 °F 29.86 in Calm     93 % 0.00 in 0 W/m2
00:16 30.4 °F 28.6 °F 29.87 in Calm     93 % 0.00 in 0 W/m2
00:21 30.4 °F 28.9 °F 29.87 in Calm     94 % 0.00 in 0 W/m2
00:26 30.4 °F 28.9 °F 29.87 in Calm     94 % 0.00 in 0 W/m2
00:31 30.4 °F 28.9 °F 29.87 in Calm     94 % 0.00 in 0 W/m2
00:36 30.4 °F 28.9 °F 29.87 in Calm     94 % 0.00 in 0 W/m2
00:41 30.6 °F 29.0 °F 29.87 in Calm     94 % 0.00 in 0 W/m2
00:46 30.6 °F 29.0 °F 29.88 in Calm     94 % 0.00 in 0 W/m2
00:51 30.7 °F 29.2 °F 29.88 in Calm     94 % 0.00 in 0 W/m2
00:56 30.7 °F 29.2 °F 29.88 in Calm     94 % 0.00 in 0 W/m2
01:02 30.7 °F 29.2 °F 29.88 in Calm     94 % 0.00 in 0 W/m2
01:07 30.9 °F 29.4 °F 29.89 in Calm     94 % 0.00 in 0 W/m2
01:12 30.9 °F 29.4 °F 29.89 in Calm     94 % 0.00 in 0 W/m2
01:17 30.9 °F 29.4 °F 29.89 in Calm     94 % 0.00 in 0 W/m2
01:22 30.9 °F 29.4 °F 29.90 in Calm     94 % 0.00 in 0 W/m2
01:27 30.7 °F 29.2 °F 29.90 in Calm     94 % 0.00 in 0 W/m2
01:32 30.7 °F 29.2 °F 29.90 in West 2.0 mph 2.0 mph 94 % 0.00 in 0 W/m2
01:37 30.7 °F 29.2 °F 29.90 in West 1.0 mph 2.0 mph 94 % 0.00 in 0 W/m2
01:42 30.7 °F 29.2 °F 29.90 in Calm   1.0 mph 94 % 0.00 in 0 W/m2
01:47 30.9 °F 29.4 °F 29.90 in Calm   2.0 mph 94 % 0.00 in 0 W/m2
01:52 30.7 °F 29.2 °F 29.90 in Calm     94 % 0.00 in 0 W/m2
01:57 30.7 °F 29.2 °F 29.90 in WNW 1.0 mph 2.0 mph 94 % 0.00 in 0 W/m2
02:02 30.7 °F 29.2 °F 29.90 in Calm   2.0 mph 94 % 0.00 in 0 W/m2
02:07 30.7 °F 29.2 °F 29.90 in Calm     94 % 0.00 in 0 W/m2
02:12 30.4 °F 28.9 °F 29.90 in Calm     94 % 0.00 in 0 W/m2
02:17 30.2 °F 28.7 °F 29.90 in Calm     94 % 0.00 in 0 W/m2
02:22 30.0 °F 28.5 °F 29.91 in Calm     94 % 0.00 in 0 W/m2
02:27 30.0 °F 28.5 °F 29.90 in NNE 4.0 mph 5.0 mph 94 % 0.00 in 0 W/m2
02:32 30.0 °F 28.5 °F 29.90 in ENE 2.0 mph 5.0 mph 94 % 0.00 in 0 W/m2
02:37 30.2 °F 28.9 °F 29.90 in Calm     95 % 0.00 in 0 W/m2
02:42 30.4 °F 29.1 °F 29.90 in Calm     95 % 0.00 in 0 W/m2
02:47 30.6 °F 29.3 °F 29.90 in Calm   2.0 mph 95 % 0.00 in 0 W/m2
02:52 30.6 °F 29.3 °F 29.90 in Calm     95 % 0.00 in 0 W/m2
02:57 30.6 °F 29.3 °F 29.91 in Calm     95 % 0.00 in 0 W/m2
03:02 30.6 °F 29.3 °F 29.91 in Calm     95 % 0.00 in 0 W/m2
03:07 30.6 °F 29.3 °F 29.91 in Calm     95 % 0.00 in 0 W/m2
03:13 30.6 °F 29.3 °F 29.91 in Calm     95 % 0.00 in 0 W/m2
03:18 30.6 °F 29.3 °F 29.91 in Calm     95 % 0.00 in 0 W/m2
03:23 30.6 °F 29.3 °F 29.90 in Calm     95 % 0.00 in 0 W/m2
03:28 30.7 °F 29.5 °F 29.90 in Calm     95 % 0.00 in 0 W/m2
03:33 30.9 °F 29.7 °F 29.90 in Calm     95 % 0.00 in 0 W/m2
03:38 30.9 °F 29.7 °F 29.90 in Calm     95 % 0.00 in 0 W/m2
03:43 30.7 °F 29.5 °F 29.90 in Calm     95 % 0.00 in 0 W/m2
03:48 30.6 °F 29.3 °F 29.90 in Calm     95 % 0.00 in 0 W/m2
03:53 30.4 °F 29.1 °F 29.90 in Calm     95 % 0.00 in 0 W/m2
03:58 30.4 °F 29.1 °F 29.90 in Calm     95 % 0.00 in 0 W/m2
04:03 30.4 °F 29.1 °F 29.90 in Calm     95 % 0.00 in 0 W/m2
04:08 30.4 °F 29.1 °F 29.90 in Calm     95 % 0.00 in 0 W/m2
04:13 30.2 °F 28.9 °F 29.90 in Calm     95 % 0.00 in 0 W/m2
04:18 30.4 °F 29.1 °F 29.91 in Calm   2.0 mph 95 % 0.00 in 0 W/m2
04:23 30.4 °F 29.1 °F 29.91 in Calm     95 % 0.00 in 0 W/m2
04:28 30.4 °F 29.1 °F 29.91 in Calm   1.0 mph 95 % 0.00 in 0 W/m2
04:33 30.6 °F 29.3 °F 29.91 in Calm     95 % 0.00 in 0 W/m2
04:38 30.7 °F 29.5 °F 29.91 in Calm     95 % 0.00 in 0 W/m2
04:43 30.7 °F 29.7 °F 29.91 in Calm     96 % 0.00 in 0 W/m2
04:48 30.9 °F 29.9 °F 29.92 in Calm     96 % 0.00 in 0 W/m2
04:53 31.1 °F 30.1 °F 29.92 in Calm     96 % 0.00 in 0 W/m2
04:58 31.3 °F 30.3 °F 29.92 in Calm     96 % 0.00 in 0 W/m2
05:03 31.3 °F 30.3 °F 29.92 in Calm     96 % 0.00 in 0 W/m2
05:09 31.3 °F 30.3 °F 29.92 in Calm     96 % 0.00 in 0 W/m2
05:14 31.3 °F 30.3 °F 29.92 in Calm     96 % 0.00 in 0 W/m2
05:19 31.3 °F 30.0 °F 29.92 in Calm     95 % 0.00 in 0 W/m2
05:24 31.3 °F 30.0 °F 29.92 in Calm   2.0 mph 95 % 0.00 in 0 W/m2
05:29 31.3 °F 30.0 °F 29.92 in Calm     95 % 0.00 in 0 W/m2
05:34 31.3 °F 30.0 °F 29.92 in Calm     95 % 0.00 in 0 W/m2
05:39 31.3 °F 30.3 °F 29.92 in Calm     96 % 0.00 in 0 W/m2
05:44 31.5 °F 30.5 °F 29.91 in Calm     96 % 0.00 in 0 W/m2
05:49 31.5 °F 30.5 °F 29.92 in Calm     96 % 0.00 in 0 W/m2
05:54 31.6 °F 30.6 °F 29.92 in Calm     96 % 0.00 in 0 W/m2
05:59 31.6 °F 30.6 °F 29.92 in Calm     96 % 0.00 in 0 W/m2
06:04 31.6 °F 30.6 °F 29.92 in Calm     96 % 0.00 in 0 W/m2
06:09 31.6 °F 30.6 °F 29.92 in Calm     96 % 0.00 in 0 W/m2
06:19 31.8 °F 30.8 °F 29.92 in Calm     96 % 0.00 in 0 W/m2
06:29 31.8 °F 30.8 °F 29.92 in Calm     96 % 0.00 in 0 W/m2
06:34 31.8 °F 30.6 °F 29.92 in Calm     95 % 0.00 in 0 W/m2
06:39 31.8 °F 30.6 °F 29.92 in Calm     95 % 0.00 in 0 W/m2
06:44 31.8 °F 30.8 °F 29.92 in Calm     96 % 0.00 in 0 W/m2
06:59 31.6 °F 30.6 °F 29.91 in Calm     96 % 0.00 in 0 W/m2
07:05 31.6 °F 30.6 °F 29.92 in Calm     96 % 0.00 in 0 W/m2
07:10 31.6 °F 30.6 °F 29.91 in Calm     96 % 0.00 in 0 W/m2
07:15 31.6 °F 30.6 °F 29.92 in Calm     96 % 0.00 in 0 W/m2
07:20 31.8 °F 30.8 °F 29.91 in Calm     96 % 0.00 in 0 W/m2
07:25 31.8 °F 30.8 °F 29.91 in Calm     96 % 0.00 in 0 W/m2
07:30 31.8 °F 30.8 °F 29.92 in Calm     96 % 0.00 in 0 W/m2
07:40 31.6 °F 30.6 °F 29.92 in Calm     96 % 0.00 in 0 W/m2
07:45 31.6 °F 30.6 °F 29.91 in Calm     96 % 0.00 in 0 W/m2
07:50 31.6 °F 30.6 °F 29.92 in ENE 2.0 mph 3.0 mph 96 % 0.00 in 0 W/m2
07:55 31.8 °F 30.8 °F 29.92 in Calm     96 % 0.00 in 0 W/m2
08:00 32.0 °F 31.0 °F 29.91 in Calm     96 % 0.00 in 0 W/m2
08:05 32.2 °F 31.2 °F 29.91 in ENE 1.0 mph 3.0 mph 96 % 0.00 in 0 W/m2
08:10 32.2 °F 31.2 °F 29.91 in Calm     96 % 0.00 in 0 W/m2
08:15 32.0 °F 31.0 °F 29.90 in Calm     96 % 0.00 in 0 W/m2
08:20 32.2 °F 31.2 °F 29.91 in Calm     96 % 0.00 in 5 W/m2
08:25 32.4 °F 31.3 °F 29.91 in Calm     96 % 0.00 in 7 W/m2
08:30 32.5 °F 31.5 °F 29.91 in Calm   1.0 mph 96 % 0.00 in 7 W/m2
08:35 32.5 °F 31.5 °F 29.91 in Calm     96 % 0.00 in 11 W/m2
08:40 32.7 °F 31.7 °F 29.91 in SSE 4.0 mph 7.0 mph 96 % 0.00 in 12 W/m2
08:45 32.7 °F 31.7 °F 29.91 in SSE 2.0 mph 5.0 mph 96 % 0.00 in 12 W/m2
08:50 32.9 °F 31.9 °F 29.91 in Calm     96 % 0.00 in 14 W/m2
08:55 32.9 °F 31.9 °F 29.90 in Calm   1.0 mph 96 % 0.00 in 16 W/m2
09:00 33.1 °F 32.1 °F 29.90 in Calm     96 % 0.00 in 18 W/m2
09:05 33.3 °F 32.2 °F 29.90 in SSE 2.0 mph 4.0 mph 96 % 0.00 in 18 W/m2
09:10 33.4 °F 32.4 °F 29.90 in SSE 4.0 mph 6.0 mph 96 % 0.00 in 19 W/m2
09:15 33.6 °F 32.6 °F 29.90 in South 5.0 mph 8.0 mph 96 % 0.00 in 19 W/m2
09:20 34.0 °F 33.0 °F 29.90 in South 5.0 mph 9.0 mph 96 % 0.00 in 19 W/m2
09:25 34.2 °F 32.9 °F 29.90 in SSE 4.0 mph 6.0 mph 95 % 0.00 in 19 W/m2
09:30 34.3 °F 33.1 °F 29.90 in SSE 6.0 mph 9.0 mph 95 % 0.00 in 21 W/m2
09:35 34.5 °F 33.2 °F 29.90 in South 5.0 mph 8.0 mph 95 % 0.00 in 18 W/m2
09:41 34.5 °F 33.0 °F 29.90 in SSE 4.0 mph 6.0 mph 94 % 0.00 in 21 W/m2
09:46 34.7 °F 33.2 °F 29.90 in SSE 4.0 mph 6.0 mph 94 % 0.00 in 21 W/m2
09:51 34.7 °F 33.2 °F 29.90 in SSE 5.0 mph 7.0 mph 94 % 0.00 in 21 W/m2
09:56 34.9 °F 33.3 °F 29.89 in SSE 5.0 mph 7.0 mph 94 % 0.00 in 21 W/m2
10:01 34.9 °F 33.3 °F 29.89 in SSE 6.0 mph 9.0 mph 94 % 0.00 in 23 W/m2
10:06 34.9 °F 33.3 °F 29.89 in SSE 6.0 mph 9.0 mph 94 % 0.00 in 28 W/m2
10:11 34.9 °F 33.3 °F 29.89 in SSE 3.0 mph 7.0 mph 94 % 0.00 in 28 W/m2
10:16 34.9 °F 33.3 °F 29.89 in SSE 4.0 mph 8.0 mph 94 % 0.00 in 28 W/m2
10:21 34.9 °F 33.3 °F 29.89 in SSE 4.0 mph 6.0 mph 94 % 0.00 in 26 W/m2
10:26 34.7 °F 32.9 °F 29.89 in SSE 6.0 mph 10.0 mph 93 % 0.00 in 26 W/m2
10:31 34.5 °F 33.0 °F 29.90 in SSE 4.0 mph 7.0 mph 94 % 0.00 in 25 W/m2
10:36 34.3 °F 32.8 °F 29.90 in SSE 5.0 mph 7.0 mph 94 % 0.00 in 23 W/m2
10:41 34.3 °F 32.8 °F 29.90 in SSE 4.0 mph 6.0 mph 94 % 0.00 in 21 W/m2
10:46 34.2 °F 32.6 °F 29.89 in SE 6.0 mph 9.0 mph 94 % 0.00 in 23 W/m2
10:51 34.2 °F 32.6 °F 29.89 in SSE 5.0 mph 8.0 mph 94 % 0.00 in 25 W/m2
10:56 34.0 °F 32.4 °F 29.89 in SE 6.0 mph 10.0 mph 94 % 0.00 in 23 W/m2
11:01 34.0 °F 32.4 °F 29.88 in SSE 7.0 mph 10.0 mph 94 % 0.00 in 23 W/m2
11:06 33.8 °F 32.3 °F 29.88 in SSE 5.0 mph 8.0 mph 94 % 0.00 in 21 W/m2
11:11 33.6 °F 32.3 °F 29.88 in SSE 6.0 mph 9.0 mph 95 % 0.01 in 21 W/m2
11:16 33.6 °F 32.3 °F 29.88 in SE 8.0 mph 11.0 mph 95 % 0.02 in 23 W/m2
11:21 33.4 °F 32.2 °F 29.87 in SSE 5.0 mph 7.0 mph 95 % 0.02 in 25 W/m2
11:26 33.4 °F 32.2 °F 29.86 in SSE 6.0 mph 9.0 mph 95 % 0.02 in 26 W/m2
11:31 33.4 °F 32.2 °F 29.85 in SSE 8.0 mph 15.0 mph 95 % 0.02 in 26 W/m2
11:36 33.4 °F 32.2 °F 29.85 in SSE 8.0 mph 11.0 mph 95 % 0.02 in 25 W/m2
11:41 33.3 °F 32.0 °F 29.83 in SSE 9.0 mph 13.0 mph 95 % 0.02 in 28 W/m2
11:46 33.3 °F 32.0 °F 29.83 in SSE 10.0 mph 15.0 mph 95 % 0.02 in 32 W/m2
11:51 33.3 °F 32.0 °F 29.85 in SSE 5.0 mph 9.0 mph 95 % 0.02 in 35 W/m2
11:57 33.4 °F 32.4 °F 29.85 in SE 7.0 mph 11.0 mph 96 % 0.02 in 37 W/m2
12:02 33.4 °F 32.4 °F 29.85 in SSE 8.0 mph 12.0 mph 96 % 0.02 in 39 W/m2
12:07 33.4 °F 32.4 °F 29.85 in SE 8.0 mph 11.0 mph 96 % 0.02 in 35 W/m2
12:12 33.4 °F 32.4 °F 29.84 in SE 9.0 mph 13.0 mph 96 % 0.02 in 40 W/m2
12:17 33.4 °F 32.4 °F 29.83 in SE 8.0 mph 11.0 mph 96 % 0.01 in 37 W/m2
12:22 33.4 °F 32.4 °F 29.83 in SE 8.0 mph 12.0 mph 96 % 0.01 in 37 W/m2
12:27 33.4 °F 32.4 °F 29.84 in SE 9.0 mph 14.0 mph 96 % 0.02 in 33 W/m2
12:32 33.4 °F 32.4 °F 29.83 in SE 7.0 mph 12.0 mph 96 % 0.02 in 32 W/m2
12:37 33.4 °F 32.4 °F 29.83 in SE 8.0 mph 13.0 mph 96 % 0.02 in 30 W/m2
12:42 33.4 °F 32.4 °F 29.82 in SE 10.0 mph 14.0 mph 96 % 0.02 in 42 W/m2
12:47 33.4 °F 32.4 °F 29.82 in SE 8.0 mph 12.0 mph 96 % 0.02 in 39 W/m2
12:52 33.4 °F 32.4 °F 29.82 in SE 8.0 mph 12.0 mph 96 % 0.02 in 28 W/m2
12:57 33.4 °F 32.4 °F 29.81 in SE 9.0 mph 15.0 mph 96 % 0.02 in 23 W/m2
13:02 33.3 °F 32.2 °F 29.81 in SE 9.0 mph 14.0 mph 96 % 0.02 in 19 W/m2
13:07 33.4 °F 32.4 °F 29.81 in SE 10.0 mph 15.0 mph 96 % 0.02 in 21 W/m2
13:12 33.4 °F 32.4 °F 29.80 in SE 9.0 mph 15.0 mph 96 % 0.02 in 28 W/m2
13:17 33.4 °F 32.4 °F 29.80 in SE 9.0 mph 14.0 mph 96 % 0.02 in 28 W/m2
13:22 33.3 °F 32.2 °F 29.79 in SE 9.0 mph 13.0 mph 96 % 0.02 in 28 W/m2
13:27 33.3 °F 32.2 °F 29.79 in SE 9.0 mph 14.0 mph 96 % 0.01 in 23 W/m2
13:32 33.3 °F 32.2 °F 29.79 in SE 9.0 mph 13.0 mph 96 % 0.01 in 25 W/m2
13:37 33.4 °F 32.4 °F 29.78 in SE 8.0 mph 11.0 mph 96 % 0.02 in 21 W/m2
13:42 33.4 °F 32.4 °F 29.78 in SE 10.0 mph 15.0 mph 96 % 0.02 in 23 W/m2
13:47 33.4 °F 32.4 °F 29.77 in SE 8.0 mph 12.0 mph 96 % 0.02 in 25 W/m2
13:52 33.4 °F 32.4 °F 29.77 in SE 11.0 mph 16.0 mph 96 % 0.02 in 25 W/m2
13:57 33.4 °F 32.4 °F 29.76 in SE 9.0 mph 14.0 mph 96 % 0.03 in 32 W/m2
14:03 33.4 °F 32.4 °F 29.76 in SE 9.0 mph 14.0 mph 96 % 0.02 in 35 W/m2
14:08 33.4 °F 32.4 °F 29.76 in SE 8.0 mph 14.0 mph 96 % 0.03 in 28 W/m2
14:13 33.4 °F 32.4 °F 29.76 in SE 10.0 mph 14.0 mph 96 % 0.03 in 21 W/m2
14:18 33.4 °F 32.4 °F 29.75 in SE 11.0 mph 15.0 mph 96 % 0.03 in 19 W/m2
14:23 33.4 °F 32.4 °F 29.75 in SE 11.0 mph 15.0 mph 96 % 0.03 in 19 W/m2
14:28 33.4 °F 32.4 °F 29.74 in SE 10.0 mph 13.0 mph 96 % 0.03 in 19 W/m2
14:33 33.4 °F 32.4 °F 29.74 in SE 12.0 mph 21.0 mph 96 % 0.04 in 19 W/m2
14:38 33.4 °F 32.4 °F 29.73 in SE 11.0 mph 18.0 mph 96 % 0.03 in 18 W/m2
14:43 33.4 °F 32.4 °F 29.74 in SSE 9.0 mph 14.0 mph 96 % 0.03 in 16 W/m2
14:48 33.6 °F 32.6 °F 29.74 in SE 10.0 mph 18.0 mph 96 % 0.02 in 9 W/m2
14:53 33.6 °F 32.6 °F 29.74 in SE 7.0 mph 12.0 mph 96 % 0.03 in 7 W/m2
14:58 33.6 °F 32.6 °F 29.73 in SE 10.0 mph 13.0 mph 96 % 0.03 in 7 W/m2
15:03 33.4 °F 32.4 °F 29.72 in SSE 11.0 mph 19.0 mph 96 % 0.03 in 7 W/m2
15:08 33.4 °F 32.4 °F 29.73 in SSE 10.0 mph 15.0 mph 96 % 0.02 in 7 W/m2
15:13 33.6 °F 32.6 °F 29.73 in SSE 8.0 mph 14.0 mph 96 % 0.03 in 9 W/m2
15:18 33.6 °F 32.6 °F 29.73 in SSE 9.0 mph 14.0 mph 96 % 0.03 in 9 W/m2
15:23 33.6 °F 32.6 °F 29.72 in SE 8.0 mph 13.0 mph 96 % 0.04 in 9 W/m2
15:28 33.6 °F 32.6 °F 29.72 in SSE 9.0 mph 16.0 mph 96 % 0.04 in 11 W/m2
15:29 33.6 °F 32.6 °F 29.72 in SSE 8.0 mph 16.0 mph 96 % 0.04 in 11 W/m2
15:34 33.6 °F 32.9 °F 29.72 in SE 8.0 mph 12.0 mph 97 % 0.04 in 9 W/m2
15:39 33.6 °F 32.9 °F 29.71 in SE 7.0 mph 9.0 mph 97 % 0.05 in 9 W/m2
15:44 33.8 °F 33.0 °F 29.71 in SSE 9.0 mph 13.0 mph 97 % 0.05 in 9 W/m2
15:49 33.8 °F 33.0 °F 29.71 in SSE 8.0 mph 11.0 mph 97 % 0.05 in 5 W/m2
15:55 33.8 °F 33.0 °F 29.71 in SE 7.0 mph 14.0 mph 97 % 0.06 in 0 W/m2
16:00 33.8 °F 33.0 °F 29.70 in SE 8.0 mph 12.0 mph 97 % 0.05 in 0 W/m2
16:05 33.8 °F 33.0 °F 29.69 in SSE 7.0 mph 11.0 mph 97 % 0.05 in 0 W/m2
16:10 33.8 °F 33.0 °F 29.69 in SSE 8.0 mph 12.0 mph 97 % 0.06 in 0 W/m2
16:15 33.8 °F 33.0 °F 29.69 in SSE 6.0 mph 9.0 mph 97 % 0.05 in 0 W/m2
16:20 34.0 °F 33.2 °F 29.69 in SSE 7.0 mph 12.0 mph 97 % 0.05 in 0 W/m2
16:25 34.0 °F 33.2 °F 29.68 in SSE 7.0 mph 9.0 mph 97 % 0.05 in 0 W/m2
16:30 34.0 °F 33.2 °F 29.68 in SSE 6.0 mph 8.0 mph 97 % 0.05 in 0 W/m2
16:35 34.0 °F 33.2 °F 29.68 in SSE 7.0 mph 12.0 mph 97 % 0.05 in 0 W/m2
16:40 34.0 °F 33.2 °F 29.67 in SSE 6.0 mph 9.0 mph 97 % 0.04 in 0 W/m2
16:45 34.0 °F 33.2 °F 29.67 in SE 6.0 mph 9.0 mph 97 % 0.04 in 0 W/m2
16:50 34.0 °F 33.2 °F 29.67 in SSE 7.0 mph 11.0 mph 97 % 0.04 in 0 W/m2
16:55 34.0 °F 33.2 °F 29.66 in SSE 6.0 mph 10.0 mph 97 % 0.03 in 0 W/m2
17:00 34.0 °F 33.2 °F 29.66 in South 7.0 mph 13.0 mph 97 % 0.03 in 0 W/m2
17:05 34.0 °F 33.2 °F 29.66 in South 8.0 mph 14.0 mph 97 % 0.02 in 0 W/m2
17:10 34.0 °F 33.2 °F 29.65 in SSE 7.0 mph 12.0 mph 97 % 0.02 in 0 W/m2
17:15 34.2 °F 33.4 °F 29.65 in SSE 8.0 mph 14.0 mph 97 % 0.02 in 0 W/m2
17:20 34.2 °F 33.1 °F 29.64 in SSE 7.0 mph 10.0 mph 96 % 0.02 in 0 W/m2
17:25 34.2 °F 33.1 °F 29.64 in SE 7.0 mph 10.0 mph 96 % 0.02 in 0 W/m2
17:30 34.2 °F 33.1 °F 29.65 in SSE 7.0 mph 11.0 mph 96 % 0.02 in 0 W/m2
17:36 34.2 °F 33.1 °F 29.65 in South 6.0 mph 10.0 mph 96 % 0.01 in 0 W/m2
17:41 34.2 °F 33.1 °F 29.64 in South 7.0 mph 13.0 mph 96 % 0.02 in 0 W/m2
17:46 34.3 °F 33.3 °F 29.64 in SSE 5.0 mph 9.0 mph 96 % 0.01 in 0 W/m2
17:51 34.3 °F 33.3 °F 29.63 in SE 8.0 mph 13.0 mph 96 % 0.01 in 0 W/m2
17:56 34.3 °F 33.6 °F 29.63 in SSE 7.0 mph 11.0 mph 97 % 0.01 in 0 W/m2
18:01 34.3 °F 33.6 °F 29.63 in SE 6.0 mph 10.0 mph 97 % 0.01 in 0 W/m2
18:06 34.3 °F 33.6 °F 29.63 in SE 6.0 mph 10.0 mph 97 % 0.01 in 0 W/m2
18:11 34.5 °F 33.8 °F 29.63 in SSE 5.0 mph 9.0 mph 97 % 0.01 in 0 W/m2
18:16 34.5 °F 33.8 °F 29.63 in SE 4.0 mph 8.0 mph 97 % 0.01 in 0 W/m2
18:21 34.5 °F 33.8 °F 29.63 in SSE 4.0 mph 7.0 mph 97 % 0.01 in 0 W/m2
18:26 34.7 °F 33.9 °F 29.63 in SE 5.0 mph 8.0 mph 97 % 0.01 in 0 W/m2
18:31 34.7 °F 33.9 °F 29.63 in SE 4.0 mph 7.0 mph 97 % 0.01 in 0 W/m2
18:36 34.9 °F 34.1 °F 29.63 in SE 2.0 mph 5.0 mph 97 % 0.01 in 0 W/m2
18:41 34.9 °F 34.1 °F 29.63 in SSE 4.0 mph 6.0 mph 97 % 0.00 in 0 W/m2
18:46 34.9 °F 34.1 °F 29.63 in SE 1.0 mph 6.0 mph 97 % 0.00 in 0 W/m2
18:51 35.1 °F 34.3 °F 29.62 in South 2.0 mph 5.0 mph 97 % 0.01 in 0 W/m2
18:56 35.1 °F 34.3 °F 29.62 in SSE 3.0 mph 6.0 mph 97 % 0.01 in 0 W/m2
19:01 35.1 °F 34.3 °F 29.61 in SSE 5.0 mph 8.0 mph 97 % 0.01 in 0 W/m2
19:06 35.1 °F 34.3 °F 29.61 in SSE 4.0 mph 6.0 mph 97 % 0.01 in 0 W/m2
19:11 35.1 °F 34.3 °F 29.61 in South 4.0 mph 8.0 mph 97 % 0.01 in 0 W/m2
19:16 35.2 °F 34.5 °F 29.61 in South 3.0 mph 7.0 mph 97 % 0.01 in 0 W/m2
19:21 35.2 °F 34.5 °F 29.61 in SSE 2.0 mph 5.0 mph 97 % 0.01 in 0 W/m2
19:26 35.2 °F 34.5 °F 29.61 in SE 3.0 mph 5.0 mph 97 % 0.01 in 0 W/m2
19:31 35.4 °F 34.7 °F 29.60 in SSE 4.0 mph 7.0 mph 97 % 0.01 in 0 W/m2
19:36 35.4 °F 34.7 °F 29.60 in SSE 1.0 mph 4.0 mph 97 % 0.01 in 0 W/m2
19:41 35.4 °F 34.7 °F 29.60 in SSE 3.0 mph 5.0 mph 97 % 0.01 in 0 W/m2
19:46 35.6 °F 34.8 °F 29.60 in SSE 3.0 mph 6.0 mph 97 % 0.01 in 0 W/m2
19:52 35.6 °F 34.8 °F 29.60 in SSE 2.0 mph 4.0 mph 97 % 0.00 in 0 W/m2
19:57 35.6 °F 34.8 °F 29.60 in SSE 1.0 mph 4.0 mph 97 % 0.00 in 0 W/m2
20:02 35.6 °F 34.8 °F 29.61 in Calm   4.0 mph 97 % 0.00 in 0 W/m2
20:07 35.6 °F 34.8 °F 29.60 in Calm     97 % 0.00 in 0 W/m2
20:12 35.8 °F 35.0 °F 29.61 in SSE 1.0 mph 4.0 mph 97 % 0.00 in 0 W/m2
20:17 35.8 °F 35.0 °F 29.61 in Calm     97 % 0.00 in 0 W/m2
20:27 36.0 °F 35.2 °F 29.60 in Calm     97 % 0.00 in 0 W/m2
20:37 36.3 °F 35.6 °F 29.59 in Calm     97 % 0.00 in 0 W/m2
20:42 36.3 °F 35.6 °F 29.59 in West 2.0 mph 5.0 mph 97 % 0.00 in 0 W/m2
20:47 37.0 °F 36.3 °F 29.59 in WNW 6.0 mph 10.0 mph 97 % 0.00 in 0 W/m2
20:52 38.5 °F 38.0 °F 29.59 in West 1.0 mph 6.0 mph 98 % 0.00 in 0 W/m2
20:57 38.8 °F 38.3 °F 29.59 in South 1.0 mph 2.0 mph 98 % 0.00 in 0 W/m2
21:02 39.0 °F 38.5 °F 29.59 in Calm   1.0 mph 98 % 0.00 in 0 W/m2
21:12 39.7 °F 39.2 °F 29.59 in Calm   1.0 mph 98 % 0.00 in 0 W/m2
21:17 40.1 °F 39.6 °F 29.59 in Calm   2.0 mph 98 % 0.00 in 0 W/m2
21:22 40.6 °F 40.1 °F 29.59 in WSW 6.0 mph 11.0 mph 98 % 0.00 in 0 W/m2
21:27 41.4 °F 40.8 °F 29.59 in West 5.0 mph 18.0 mph 98 % 0.00 in 0 W/m2
21:32 42.1 °F 41.6 °F 29.59 in West 5.0 mph 11.0 mph 98 % 0.00 in 0 W/m2
21:37 42.4 °F 41.9 °F 29.59 in West 7.0 mph 14.0 mph 98 % 0.00 in 0 W/m2
21:42 42.8 °F 42.3 °F 29.59 in West 11.0 mph 20.0 mph 98 % 0.00 in 0 W/m2
21:52 43.3 °F 42.8 °F 29.59 in West 11.0 mph 18.0 mph 98 % 0.00 in 0 W/m2
21:57 43.2 °F 42.6 °F 29.59 in WNW 11.0 mph 18.0 mph 98 % 0.00 in 0 W/m2
22:02 43.2 °F 42.4 °F 29.59 in WNW 15.0 mph 22.0 mph 97 % 0.00 in 0 W/m2
22:07 43.0 °F 42.2 °F 29.59 in WNW 13.0 mph 24.0 mph 97 % 0.00 in 0 W/m2
22:12 43.2 °F 42.4 °F 29.60 in WNW 12.0 mph 21.0 mph 97 % 0.00 in 0 W/m2
22:17 43.2 °F 42.4 °F 29.60 in WNW 11.0 mph 21.0 mph 97 % 0.00 in 0 W/m2
22:22 43.3 °F 42.5 °F 29.59 in WNW 8.0 mph 15.0 mph 97 % 0.00 in 0 W/m2
22:27 43.3 °F 42.3 °F 29.59 in WNW 8.0 mph 18.0 mph 96 % 0.00 in 0 W/m2
22:32 43.3 °F 42.3 °F 29.59 in NW 9.0 mph 19.0 mph 96 % 0.00 in 0 W/m2
22:37 43.3 °F 42.3 °F 29.59 in WNW 13.0 mph 21.0 mph 96 % 0.00 in 0 W/m2
22:43 43.3 °F 42.3 °F 29.60 in WNW 13.0 mph 24.0 mph 96 % 0.00 in 0 W/m2
22:48 43.5 °F 42.2 °F 29.60 in WNW 10.0 mph 15.0 mph 95 % 0.00 in 0 W/m2
22:52 43.7 °F 42.4 °F 29.61 in WNW 11.0 mph 22.0 mph 95 % 0.00 in 0 W/m2
22:58 43.9 °F 42.5 °F 29.61 in WNW 11.0 mph 20.0 mph 95 % 0.00 in 0 W/m2
23:08 44.1 °F 42.4 °F 29.61 in WNW 6.0 mph 10.0 mph 94 % 0.00 in 0 W/m2
23:13 44.2 °F 42.6 °F 29.61 in West 8.0 mph 15.0 mph 94 % 0.00 in 0 W/m2
23:18 44.1 °F 42.4 °F 29.62 in WNW 9.0 mph 18.0 mph 94 % 0.00 in 0 W/m2
23:23 44.2 °F 42.3 °F 29.62 in WNW 8.0 mph 15.0 mph 93 % 0.00 in 0 W/m2
23:38 44.2 °F 42.3 °F 29.62 in NW 6.0 mph 11.0 mph 93 % 0.00 in 0 W/m2
23:43 44.4 °F 42.2 °F 29.63 in NNW 5.0 mph 12.0 mph 92 % 0.00 in 0 W/m2
23:48 44.4 °F 42.2 °F 29.63 in NNW 1.0 mph 6.0 mph 92 % 0.00 in 0 W/m2
23:53 44.6 °F 42.4 °F 29.63 in NNW 2.0 mph 6.0 mph 92 % 0.00 in 0 W/m2
23:58 44.6 °F 42.1 °F 29.64 in NNW 2.0 mph 10.0 mph 91 % 0.00 in 0 W/m2
Delerius-Weather
Compliments of Weather Underground - 2.25 mb

Data updates at regular intervals.